Time;durP1;ratioP1;P1;durP2;ratioP2;P2;SDS_P1;SDS_P2;PMS_P1;PMS_P2;Temp;Humidity;BMP_temperature;BMP_pressure;BME280_temperature;BME280_humidity;BME280_pressure;Samples;Min_cycle;Max_cycle;Signal;HPM_P1;HPM_P2
2022/01/26 00:07:10;;;;;;;93.03;44.17;;;4.30;93.80;;;;;;5075054;28;20391;-58
2022/01/26 00:09:36;;;;;;;94.78;42.08;;;4.20;93.70;;;;;;5057302;28;20020;-58
2022/01/26 00:12:01;;;;;;;94.93;42.80;;;4.20;93.70;;;;;;5075072;28;20033;-58
2022/01/26 00:14:27;;;;;;;105.63;47.28;;;4.20;93.70;;;;;;5057042;28;20039;-58
2022/01/26 00:16:53;;;;;;;104.88;48.67;;;4.20;93.70;;;;;;5074674;28;20025;-58
2022/01/26 00:19:23;;;;;;;96.07;43.47;;;4.20;93.70;;;;;;5056696;28;20556;-58
2022/01/26 00:21:52;;;;;;;107.03;47.45;;;4.20;93.80;;;;;;5074735;28;20521;-58
2022/01/26 00:25:22;;;;;;;105.55;46.75;;;4.20;93.80;;;;;;5074694;28;20130;-58
2022/01/26 00:27:35;;;;;;;93.03;41.42;;;4.20;93.90;;;;;;5060719;28;20029;-58
2022/01/26 00:31:12;;;;;;;98.55;44.97;;;4.10;93.90;;;;;;5056674;28;20047;-58
2022/01/26 00:38:34;;;;;;;96.97;45.50;;;4.10;94.00;;;;;;5074763;28;20114;-58
2022/01/26 00:38:42;;;;;;;95.03;43.08;;;4.10;94.00;;;;;;5074333;28;20020;-58
2022/01/26 00:41:14;;;;;;;85.50;39.70;;;4.00;94.00;;;;;;5074639;28;20024;-58
2022/01/26 00:43:47;;;;;;;81.13;37.95;;;4.00;94.10;;;;;;5056475;28;20469;-58
2022/01/26 00:46:12;;;;;;;92.28;43.33;;;4.00;94.10;;;;;;5074563;28;20112;-58
2022/01/26 00:48:38;;;;;;;93.32;42.75;;;4.10;94.10;;;;;;5056575;28;20107;-58
2022/01/26 00:51:06;;;;;;;83.40;40.13;;;4.10;94.10;;;;;;5074301;28;20024;-59
2022/01/26 00:53:40;;;;;;;78.78;37.05;;;4.10;94.10;;;;;;5074123;28;20024;-58
2022/01/26 00:56:06;;;;;;;83.65;37.55;;;4.10;94.20;;;;;;5074406;28;20035;-58
2022/01/26 00:58:33;;;;;;;80.18;38.33;;;4.10;94.20;;;;;;5056335;28;20025;-58
2022/01/26 01:01:01;;;;;;;94.72;43.35;;;4.10;94.20;;;;;;5074143;28;20027;-59
2022/01/26 01:03:28;;;;;;;100.20;43.60;;;4.10;94.20;;;;;;5073531;28;20023;-58
2022/01/26 01:06:02;;;;;;;97.70;43.13;;;4.10;94.20;;;;;;5073812;28;20487;-58
2022/01/26 01:08:29;;;;;;;96.43;43.20;;;4.10;94.10;;;;;;5073694;28;20070;-58
2022/01/26 01:10:57;;;;;;;97.47;41.75;;;4.10;94.10;;;;;;5073791;28;20024;-58
2022/01/26 01:13:38;;;;;;;92.97;41.17;;;4.00;94.10;;;;;;5073770;28;20031;-58
2022/01/26 01:16:06;;;;;;;95.15;41.72;;;4.10;94.10;;;;;;5073761;28;20530;-58
2022/01/26 01:21:44;;;;;;;81.25;35.88;;;4.00;94.20;;;;;;5074014;28;20070;-58
2022/01/26 01:34:13;;;;;;;68.30;29.88;;;4.00;94.30;;;;;;5093672;28;20020;-58
2022/01/26 01:36:41;;;;;;;80.15;34.25;;;4.00;94.30;;;;;;5075641;28;20073;-58
2022/01/26 01:39:07;;;;;;;85.30;37.50;;;4.00;94.40;;;;;;5093569;28;20024;-59
2022/01/26 01:41:34;;;;;;;77.47;34.92;;;4.00;94.40;;;;;;5075464;28;20475;-58
2022/01/26 01:44:00;;;;;;;86.65;37.38;;;4.10;94.40;;;;;;5075162;28;20442;-58
2022/01/26 01:46:29;;;;;;;86.85;37.20;;;4.00;94.40;;;;;;5075507;28;20028;-58
2022/01/26 01:48:54;;;;;;;91.68;40.00;;;4.10;94.40;;;;;;5093577;28;20034;-58
2022/01/26 01:51:27;;;;;;;91.78;39.53;;;4.10;94.50;;;;;;5093354;28;20024;-58
2022/01/26 01:53:52;;;;;;;82.68;36.70;;;4.10;94.50;;;;;;5055041;28;20071;-58
2022/01/26 01:56:22;;;;;;;85.53;39.38;;;4.00;94.40;;;;;;5035413;28;20060;-58
2022/01/26 01:58:48;;;;;;;87.95;37.78;;;4.00;94.50;;;;;;5035266;28;20039;-58
2022/01/26 02:01:13;;;;;;;91.45;41.80;;;4.00;94.50;;;;;;5061086;28;20124;-58
2022/01/26 02:03:39;;;;;;;93.85;41.78;;;4.00;94.40;;;;;;5072970;28;20421;-58
2022/01/26 02:06:05;;;;;;;90.68;40.33;;;4.00;94.40;;;;;;5072824;28;20031;-58
2022/01/26 02:08:30;;;;;;;84.00;36.53;;;4.00;94.40;;;;;;5055207;28;20021;-58
2022/01/26 02:10:56;;;;;;;88.38;38.42;;;4.00;94.40;;;;;;5055019;28;20111;-58
2022/01/26 02:13:29;;;;;;;84.63;37.50;;;4.00;94.40;;;;;;5072851;28;20085;-58
2022/01/26 02:21:24;;;;;;;77.28;33.35;;;4.00;94.50;;;;;;5093348;28;20024;-58
2022/01/26 02:52:00;;;;;;;77.18;34.90;;;3.90;94.70;;;;;;5099526;28;20064;-58
2022/01/26 02:56:58;;;;;;;85.90;37.50;;;4.00;94.80;;;;;;5059489;28;20029;-58
2022/01/26 02:59:57;;;;;;;92.22;40.40;;;3.90;94.70;;;;;;5068451;28;20016;-58
2022/01/26 03:04:51;;;;;;;98.72;44.00;;;3.90;94.70;;;;;;5079021;28;20036;-58
2022/01/26 03:10:14;;;;;;;86.43;38.13;;;3.80;94.70;;;;;;5079149;28;20025;-58
2022/01/26 03:15:16;;;;;;;87.88;36.10;;;3.80;94.80;;;;;;5078969;28;20032;-58
2022/01/26 03:18:07;;;;;;;80.70;35.85;;;3.90;94.90;;;;;;5079102;28;20024;-58
2022/01/26 03:20:32;;;;;;;79.93;35.85;;;3.80;94.90;;;;;;5078820;28;20031;-58
2022/01/26 03:28:40;;;;;;;70.90;31.00;;;3.90;94.90;;;;;;5079154;28;20215;-58
2022/01/26 03:34:00;;;;;;;70.05;30.92;;;3.90;95.00;;;;;;5079107;28;20032;-58
2022/01/26 03:36:29;;;;;;;72.77;31.83;;;3.90;95.00;;;;;;5078770;28;20056;-59
2022/01/26 03:39:00;;;;;;;69.72;30.88;;;3.90;95.00;;;;;;5060900;28;20369;-58
2022/01/26 03:44:21;;;;;;;69.18;29.13;;;3.90;95.00;;;;;;5064284;28;20056;-58
2022/01/26 03:46:47;;;;;;;91.82;40.75;;;3.90;95.10;;;;;;5060777;28;20476;-59
2022/01/26 03:49:14;;;;;;;105.82;47.53;;;3.90;95.10;;;;;;5060580;28;20073;-58
2022/01/26 03:51:40;;;;;;;104.53;47.40;;;3.80;95.20;;;;;;5060094;28;20498;-58
2022/01/26 03:54:07;;;;;;;103.00;47.30;;;3.80;95.40;;;;;;5075218;28;20020;-58
2022/01/26 03:56:33;;;;;;;119.50;54.55;;;3.70;95.60;;;;;;5057502;28;20162;-58
2022/01/26 03:58:59;;;;;;;129.82;56.25;;;3.60;96.00;;;;;;5075338;28;20020;-59
2022/01/26 04:01:25;;;;;;;124.93;53.00;;;3.50;96.40;;;;;;5075259;28;20023;-58
2022/01/26 04:03:51;;;;;;;121.40;53.70;;;3.40;96.70;;;;;;5075161;28;20031;-58
2022/01/26 04:06:17;;;;;;;127.05;54.53;;;3.30;96.90;;;;;;5057168;28;20047;-58
2022/01/26 04:08:44;;;;;;;127.63;55.08;;;3.30;97.10;;;;;;5075365;28;20016;-58
2022/01/26 04:13:54;;;;;;;120.43;51.75;;;3.20;97.40;;;;;;5075374;28;20044;-58
2022/01/26 04:16:22;;;;;;;125.53;53.53;;;3.20;97.50;;;;;;5057054;28;20035;-58
2022/01/26 04:18:47;;;;;;;126.63;55.90;;;3.20;97.50;;;;;;5057151;28;20024;-58
2022/01/26 04:21:33;;;;;;;128.90;55.25;;;3.20;97.50;;;;;;5056981;28;20103;-58
2022/01/26 04:26:44;;;;;;;122.63;53.05;;;3.20;97.50;;;;;;5074921;28;20025;-58
2022/01/26 04:29:16;;;;;;;124.30;52.00;;;3.30;97.50;;;;;;5074894;28;20016;-58
2022/01/26 04:31:41;;;;;;;120.28;53.55;;;3.30;97.60;;;;;;5074724;28;20041;-58
2022/01/26 04:34:07;;;;;;;115.28;50.95;;;3.20;97.60;;;;;;5074435;28;20490;-58
2022/01/26 04:39:36;;;;;;;108.30;46.13;;;3.30;97.70;;;;;;5040643;28;20047;-58
2022/01/26 04:42:08;;;;;;;110.38;47.95;;;3.30;97.70;;;;;;5056654;28;20500;-58
2022/01/26 04:44:56;;;;;;;124.78;53.78;;;3.30;97.60;;;;;;5056530;28;20043;-58
2022/01/26 04:47:22;;;;;;;120.40;49.75;;;3.30;97.60;;;;;;5074745;28;20071;-58
2022/01/26 04:49:47;;;;;;;119.00;51.33;;;3.30;97.70;;;;;;5056574;28;20432;-58
2022/01/26 04:52:32;;;;;;;114.97;49.67;;;3.30;97.80;;;;;;5074371;28;20100;-59
2022/01/26 04:54:58;;;;;;;122.07;51.58;;;3.30;97.80;;;;;;5056303;28;20033;-58
2022/01/26 04:57:23;;;;;;;116.25;52.80;;;3.30;97.80;;;;;;5056256;28;20028;-58
2022/01/26 04:59:49;;;;;;;124.80;55.20;;;3.30;97.90;;;;;;5074268;28;20028;-58
2022/01/26 05:07:50;;;;;;;113.95;47.88;;;3.30;98.20;;;;;;5074670;28;20033;-59
2022/01/26 05:10:15;;;;;;;107.13;47.05;;;3.20;98.20;;;;;;5055856;28;20028;-58
2022/01/26 05:12:41;;;;;;;112.07;49.00;;;3.30;98.20;;;;;;5073955;28;20543;-58
2022/01/26 05:15:07;;;;;;;122.35;51.92;;;3.30;98.20;;;;;;5055879;28;20029;-58
2022/01/26 05:17:35;;;;;;;113.03;49.80;;;3.30;98.20;;;;;;5073779;28;20020;-59
2022/01/26 05:20:01;;;;;;;121.15;51.53;;;3.30;98.30;;;;;;5073870;28;20021;-58
2022/01/26 05:22:28;;;;;;;118.13;50.15;;;3.30;98.30;;;;;;5073826;28;20050;-59
2022/01/26 05:24:53;;;;;;;117.05;49.53;;;3.20;98.30;;;;;;5073562;28;20028;-59
2022/01/26 05:27:19;;;;;;;114.03;49.50;;;3.30;98.30;;;;;;5073569;28;20020;-58
2022/01/26 05:29:45;;;;;;;105.05;45.63;;;3.20;98.30;;;;;;5073417;28;20381;-58
2022/01/26 05:32:10;;;;;;;100.28;43.47;;;3.30;98.30;;;;;;5073602;28;20070;-59
2022/01/26 05:34:36;;;;;;;115.63;48.97;;;3.30;98.30;;;;;;5073456;28;20487;-58
2022/01/26 05:37:02;;;;;;;102.03;45.33;;;3.30;98.20;;;;;;5073481;28;20500;-58
2022/01/26 05:39:37;;;;;;;101.60;44.83;;;3.30;98.20;;;;;;5072516;28;20520;-58
2022/01/26 05:42:17;;;;;;;98.45;43.78;;;3.40;98.20;;;;;;5055243;28;20024;-58
2022/01/26 05:44:46;;;;;;;106.10;46.53;;;3.40;98.20;;;;;;5054247;28;20494;-58
2022/01/26 05:47:17;;;;;;;116.07;50.63;;;3.40;98.20;;;;;;5055273;28;20403;-59
2022/01/26 05:49:42;;;;;;;105.82;46.42;;;3.40;98.20;;;;;;5055352;28;20051;-58
2022/01/26 05:52:08;;;;;;;121.85;53.90;;;3.40;98.20;;;;;;5073158;28;20056;-58
2022/01/26 05:54:33;;;;;;;122.90;52.33;;;3.30;98.10;;;;;;5055521;28;20060;-58
2022/01/26 05:56:59;;;;;;;119.50;51.58;;;3.30;98.00;;;;;;5055314;28;20028;-58
2022/01/26 05:59:25;;;;;;;114.47;50.03;;;3.30;98.00;;;;;;5054958;28;20071;-58
2022/01/26 06:01:51;;;;;;;115.85;50.53;;;3.30;98.00;;;;;;5055189;28;20024;-58
2022/01/26 06:04:17;;;;;;;122.63;52.42;;;3.40;98.00;;;;;;5075205;28;20116;-58
2022/01/26 06:06:48;;;;;;;122.72;52.53;;;3.40;97.90;;;;;;5092996;28;20110;-58
2022/01/26 06:09:14;;;;;;;118.57;50.88;;;3.40;97.90;;;;;;5090529;28;20403;-58
2022/01/26 06:11:39;;;;;;;118.07;51.45;;;3.30;97.90;;;;;;5093177;28;20079;-58
2022/01/26 06:14:05;;;;;;;134.23;55.45;;;3.40;98.00;;;;;;5092981;28;20395;-59
2022/01/26 06:16:30;;;;;;;132.00;55.42;;;3.30;97.90;;;;;;5092165;28;20055;-58
2022/01/26 06:18:56;;;;;;;127.78;55.58;;;3.30;97.90;;;;;;5093216;28;20464;-58
2022/01/26 06:21:21;;;;;;;135.77;56.10;;;3.30;98.00;;;;;;5093128;28;20043;-58
2022/01/26 06:23:47;;;;;;;138.73;57.42;;;3.30;98.00;;;;;;5092963;28;20532;-58
2022/01/26 06:26:13;;;;;;;123.10;50.90;;;3.20;98.00;;;;;;5089547;28;20028;-58
2022/01/26 06:28:38;;;;;;;130.30;55.00;;;3.20;98.10;;;;;;5052617;28;20027;-59
2022/01/26 06:31:10;;;;;;;137.70;58.72;;;3.20;98.20;;;;;;5052446;28;20106;-58
2022/01/26 06:33:41;;;;;;;129.93;53.17;;;3.20;98.20;;;;;;5052569;28;20127;-58
2022/01/26 06:36:09;;;;;;;120.28;49.80;;;3.20;98.30;;;;;;5065115;28;20025;-58
2022/01/26 06:38:35;;;;;;;122.53;50.70;;;3.20;98.30;;;;;;5067467;28;20029;-58
2022/01/26 06:41:01;;;;;;;133.32;53.00;;;3.20;98.30;;;;;;5037612;28;20051;-58
2022/01/26 06:43:42;;;;;;;;;;;;;;;;;;;;;
2022/01/26 06:46:08;;;;;;;131.15;52.80;;;3.30;98.30;;;;;;5050956;28;20075;-58
2022/01/26 06:48:58;;;;;;;139.57;56.53;;;3.20;98.30;;;;;;5051597;28;20384;-59
2022/01/26 06:51:24;;;;;;;126.57;55.38;;;3.20;98.40;;;;;;5066239;28;20043;-58
2022/01/26 06:53:49;;;;;;;127.93;52.38;;;3.20;98.50;;;;;;5071893;28;20036;-58
2022/01/26 06:56:15;;;;;;;130.52;52.83;;;3.20;98.50;;;;;;5069739;28;20028;-58
2022/01/26 06:58:48;;;;;;;138.77;53.90;;;3.20;98.60;;;;;;5072206;28;20540;-59
2022/01/26 07:01:13;;;;;;;139.15;56.50;;;3.20;98.60;;;;;;5051492;28;20628;-59
2022/01/26 07:03:39;;;;;;;122.40;48.58;;;3.20;98.70;;;;;;5062970;28;20021;-58
2022/01/26 07:06:04;;;;;;;141.80;57.05;;;3.20;98.80;;;;;;5065533;28;20047;-58
2022/01/26 07:08:30;;;;;;;129.80;54.25;;;3.20;98.90;;;;;;5071089;28;20020;-58
2022/01/26 07:10:55;;;;;;;141.45;56.33;;;3.20;98.90;;;;;;5070887;28;20108;-58
2022/01/26 07:13:23;;;;;;;137.00;55.20;;;3.20;99.00;;;;;;5070949;28;20024;-59
2022/01/26 07:21:25;;;;;;;128.38;52.20;;;3.10;99.10;;;;;;5068414;28;20119;-58
2022/01/26 07:23:59;;;;;;;137.23;55.47;;;3.10;99.30;;;;;;5065642;28;20023;-59
2022/01/26 07:26:29;;;;;;;135.35;56.75;;;3.10;99.40;;;;;;5068048;28;20029;-58
2022/01/26 07:28:59;;;;;;;130.85;55.67;;;3.10;99.50;;;;;;5057357;28;20391;-58
2022/01/26 07:31:25;;;;;;;134.32;54.72;;;3.10;99.60;;;;;;5055953;28;20040;-59
2022/01/26 07:34:14;;;;;;;131.95;52.78;;;3.10;99.70;;;;;;5056775;28;20025;-59
2022/01/26 07:47:02;;;;;;;125.60;49.80;;;3.10;99.90;;;;;;5060221;28;20044;-58
2022/01/26 07:49:28;;;;;;;122.38;51.95;;;3.10;99.90;;;;;;5061137;28;20041;-58
2022/01/26 07:51:59;;;;;;;133.48;52.90;;;3.10;99.90;;;;;;5072641;28;20017;-58
2022/01/26 07:58:20;;;;;;;133.85;52.90;;;3.20;99.90;;;;;;5033546;28;20511;-58
2022/01/26 08:00:46;;;;;;;123.22;49.58;;;3.20;99.90;;;;;;5070929;28;20071;-58
2022/01/26 08:07:21;;;;;;;125.78;49.33;;;3.30;99.90;;;;;;5056722;28;20024;-58
2022/01/26 08:13:04;;;;;;;111.85;45.67;;;3.20;99.90;;;;;;5037909;28;20021;-58
2022/01/26 08:15:30;;;;;;;111.93;44.13;;;3.20;99.90;;;;;;5073898;28;20358;-58
2022/01/26 08:18:05;;;;;;;117.20;47.25;;;3.30;99.90;;;;;;5070917;28;20465;-59
2022/01/26 08:20:31;;;;;;;121.50;48.05;;;3.30;99.90;;;;;;5055778;28;20491;-59
2022/01/26 08:22:57;;;;;;;114.78;48.53;;;3.30;99.90;;;;;;5052279;28;20107;-59
2022/01/26 08:25:23;;;;;;;123.57;49.70;;;3.30;99.90;;;;;;5074745;28;20036;-59
2022/01/26 08:27:56;;;;;;;120.15;49.38;;;3.40;99.90;;;;;;5068949;28;20024;-58
2022/01/26 08:33:51;;;;;;;;;;;;;;;;;;;;;
2022/01/26 08:36:17;;;;;;;115.13;48.25;;;3.40;99.90;;;;;;5072916;28;20035;-58
2022/01/26 08:38:42;;;;;;;120.47;48.65;;;3.40;99.90;;;;;;5051424;28;20103;-59
2022/01/26 08:41:09;;;;;;;118.03;47.50;;;3.40;99.90;;;;;;5052736;28;20021;-58
2022/01/26 08:43:35;;;;;;;123.07;48.30;;;3.40;99.90;;;;;;5067624;28;20025;-58
2022/01/26 08:46:34;;;;;;;;;;;;;;;;;;;;;
2022/01/26 08:49:14;;;;;;;116.95;49.00;;;3.40;99.90;;;;;;5072176;28;20016;-59
2022/01/26 08:51:40;;;;;;;114.65;46.45;;;3.50;99.90;;;;;;5053829;28;20471;-58
2022/01/26 08:54:07;;;;;;;117.20;47.17;;;3.40;99.90;;;;;;5068651;28;20112;-58
2022/01/26 08:56:33;;;;;;;116.03;48.60;;;3.50;99.90;;;;;;5053238;28;20377;-58
2022/01/26 08:58:59;;;;;;;117.53;47.28;;;3.50;99.90;;;;;;5067643;28;20031;-58
2022/01/26 09:01:24;;;;;;;117.50;48.72;;;3.50;99.90;;;;;;5054769;28;20502;-58
2022/01/26 09:03:50;;;;;;;123.18;49.08;;;3.50;99.90;;;;;;5053480;28;20035;-58
2022/01/26 09:06:15;;;;;;;110.93;47.83;;;3.50;99.90;;;;;;5070684;28;20027;-58
2022/01/26 09:08:44;;;;;;;118.97;49.00;;;3.50;99.90;;;;;;5054492;28;20427;-58
2022/01/26 09:11:40;;;;;;;113.85;46.58;;;3.50;99.90;;;;;;5072436;28;20024;-58
2022/01/26 09:14:08;;;;;;;116.95;47.45;;;3.60;99.90;;;;;;5040425;28;20035;-58
2022/01/26 09:16:35;;;;;;;109.65;46.53;;;3.60;99.90;;;;;;5053513;28;20075;-58
2022/01/26 09:19:09;;;;;;;112.40;46.72;;;3.60;99.90;;;;;;5054392;28;20423;-58
2022/01/26 09:21:35;;;;;;;112.03;46.45;;;3.60;99.90;;;;;;5065251;28;20477;-58
2022/01/26 09:24:01;;;;;;;111.13;45.53;;;3.70;99.90;;;;;;5068898;28;20020;-58
2022/01/26 09:26:26;;;;;;;113.85;47.25;;;3.70;99.90;;;;;;5049326;28;20024;-58
2022/01/26 09:28:52;;;;;;;114.38;47.42;;;3.70;99.90;;;;;;5066800;28;20017;-58
2022/01/26 09:31:17;;;;;;;110.45;48.50;;;3.70;99.90;;;;;;5066795;28;20068;-58
2022/01/26 09:33:43;;;;;;;103.45;44.30;;;3.70;99.90;;;;;;5066274;28;20029;-58
2022/01/26 09:36:09;;;;;;;107.43;45.53;;;3.70;99.90;;;;;;5049008;28;20035;-58
2022/01/26 09:38:34;;;;;;;105.97;44.45;;;3.70;99.90;;;;;;5051753;28;20094;-58
2022/01/26 09:41:00;;;;;;;106.05;45.88;;;3.80;99.90;;;;;;5067223;28;20028;-58
2022/01/26 09:43:27;;;;;;;106.57;46.83;;;3.80;99.90;;;;;;5066261;28;20035;-58
2022/01/26 09:45:53;;;;;;;107.20;46.75;;;3.80;99.90;;;;;;5072001;28;20017;-58
2022/01/26 09:48:18;;;;;;;112.50;48.03;;;3.80;99.90;;;;;;5066024;28;20036;-58
2022/01/26 09:50:46;;;;;;;98.20;44.15;;;3.80;99.90;;;;;;5071977;28;20016;-58
2022/01/26 09:53:21;;;;;;;106.43;45.90;;;3.80;99.90;;;;;;5066343;28;20019;-58
2022/01/26 09:55:47;;;;;;;103.68;45.45;;;3.90;99.90;;;;;;5069344;28;20009;-59
2022/01/26 09:58:15;;;;;;;104.22;48.45;;;3.90;99.90;;;;;;5066285;28;20090;-59
2022/01/26 10:00:40;;;;;;;98.82;44.40;;;3.90;99.90;;;;;;5051064;28;20107;-58
2022/01/26 10:03:06;;;;;;;97.03;42.42;;;3.90;99.90;;;;;;5063088;28;20100;-59
2022/01/26 10:05:44;;;;;;;94.55;42.78;;;3.90;99.90;;;;;;5071522;28;20051;-59
2022/01/26 10:08:50;;;;;;;90.03;43.28;;;4.00;99.90;;;;;;5048737;28;20029;-59
2022/01/26 10:18:59;;;;;;;80.18;38.60;;;4.10;99.90;;;;;;5063517;28;20020;-59
2022/01/26 10:21:25;;;;;;;78.03;38.67;;;4.10;99.90;;;;;;5071029;28;20489;-59
2022/01/26 10:23:57;;;;;;;86.00;40.83;;;4.10;99.90;;;;;;5061864;28;20035;-58
2022/01/26 10:26:22;;;;;;;86.63;41.83;;;4.20;99.90;;;;;;5068634;28;20016;-59
2022/01/26 10:29:05;;;;;;;80.75;40.38;;;4.10;99.90;;;;;;5068776;28;20085;-58
2022/01/26 10:31:39;;;;;;;81.13;40.75;;;4.20;99.90;;;;;;5072153;28;20054;-58
2022/01/26 10:34:13;;;;;;;80.38;39.85;;;4.30;99.90;;;;;;5052389;28;20033;-59
2022/01/26 10:36:48;;;;;;;78.43;38.85;;;4.30;99.90;;;;;;5054000;28;20036;-59
2022/01/26 10:39:23;;;;;;;80.25;38.45;;;4.30;99.90;;;;;;5050624;28;20047;-59
2022/01/26 10:41:52;;;;;;;78.00;39.90;;;4.30;99.90;;;;;;5052142;28;20070;-59
2022/01/26 10:44:29;;;;;;;84.13;40.67;;;4.30;99.90;;;;;;5044535;28;20059;-59
2022/01/26 10:47:00;;;;;;;86.43;41.85;;;4.40;99.90;;;;;;5070541;28;20504;-59
2022/01/26 10:49:54;;;;;;;77.75;38.03;;;4.30;99.90;;;;;;5071901;28;20017;-59
2022/01/26 10:52:36;;;;;;;75.28;37.45;;;4.40;99.90;;;;;;5064211;28;20096;-59
2022/01/26 10:55:15;;;;;;;78.93;36.72;;;4.40;99.90;;;;;;5053634;28;20082;-59
2022/01/26 10:57:40;;;;;;;81.15;38.75;;;4.40;99.90;;;;;;5071861;28;20024;-59
2022/01/26 11:00:06;;;;;;;70.80;35.80;;;4.40;99.90;;;;;;5070504;28;20070;-58
2022/01/26 11:02:33;;;;;;;71.95;34.03;;;4.40;99.90;;;;;;5072687;28;20036;-59
2022/01/26 11:05:16;;;;;;;66.32;34.70;;;4.40;99.90;;;;;;5053727;28;20036;-59
2022/01/26 11:07:45;;;;;;;72.05;35.97;;;4.40;99.90;;;;;;5053413;28;20059;-58
2022/01/26 11:10:12;;;;;;;69.80;34.95;;;4.40;99.90;;;;;;5053459;28;20028;-58
2022/01/26 11:15:40;;;;;;;67.70;33.22;;;4.50;99.90;;;;;;5059871;28;20460;-58
2022/01/26 11:21:34;;;;;;;69.93;34.53;;;4.50;99.90;;;;;;5071798;28;20036;-59
2022/01/26 11:24:05;;;;;;;68.35;33.15;;;4.50;99.90;;;;;;5072655;28;20021;-59
2022/01/26 11:26:31;;;;;;;69.10;35.17;;;4.50;99.90;;;;;;5071045;28;20503;-58
2022/01/26 11:28:57;;;;;;;61.72;32.25;;;4.50;99.90;;;;;;5041308;28;20044;-59
2022/01/26 11:31:24;;;;;;;62.33;31.98;;;4.50;99.90;;;;;;5068774;28;20041;-59
2022/01/26 11:33:50;;;;;;;69.82;33.35;;;4.50;99.90;;;;;;5073377;28;20024;-59
2022/01/26 11:36:18;;;;;;;71.90;35.95;;;4.60;99.90;;;;;;5075050;28;20423;-59
2022/01/26 11:47:22;;;;;;;68.63;34.40;;;4.50;99.90;;;;;;5043647;28;20035;-59
2022/01/26 11:49:51;;;;;;;69.68;34.15;;;4.60;99.90;;;;;;5040835;28;20036;-58
2022/01/26 11:52:22;;;;;;;64.28;32.80;;;4.50;99.90;;;;;;5047511;28;20052;-59
2022/01/26 11:54:54;;;;;;;56.15;30.08;;;4.60;99.90;;;;;;5068318;28;20025;-59
2022/01/26 11:57:35;;;;;;;62.83;29.92;;;4.60;99.90;;;;;;5071182;28;20099;-59
2022/01/26 12:00:36;;;;;;;58.35;28.92;;;4.60;99.90;;;;;;5073453;28;20055;-59
2022/01/26 12:03:01;;;;;;;65.63;30.60;;;4.70;99.90;;;;;;5068785;28;20074;-59
2022/01/26 12:05:28;;;;;;;59.65;31.50;;;4.70;99.90;;;;;;5054788;28;20419;-59
2022/01/26 12:07:56;;;;;;;56.22;28.75;;;4.80;99.90;;;;;;5053730;28;20070;-59
2022/01/26 12:10:43;;;;;;;62.28;30.48;;;4.80;99.90;;;;;;5053931;28;20024;-59
2022/01/26 12:13:12;;;;;;;55.45;29.02;;;4.90;99.90;;;;;;5068598;28;20093;-59
2022/01/26 12:18:23;;;;;;;60.50;29.95;;;4.90;99.90;;;;;;5067594;28;20268;-58
2022/01/26 12:36:13;;;;;;;59.60;28.55;;;5.10;99.90;;;;;;5071165;28;20039;-59
2022/01/26 12:41:33;;;;;;;63.58;31.05;;;5.10;99.90;;;;;;5073730;28;20476;-59
2022/01/26 12:44:07;;;;;;;63.20;31.13;;;5.10;99.90;;;;;;5053727;28;20028;-59
2022/01/26 12:46:35;;;;;;;60.58;30.23;;;5.00;99.90;;;;;;5055316;28;20020;-59
2022/01/26 12:49:07;;;;;;;65.95;32.13;;;5.10;99.90;;;;;;5054841;28;20396;-59
2022/01/26 12:51:43;;;;;;;63.00;32.42;;;5.10;99.90;;;;;;5072480;28;20028;-59
2022/01/26 12:54:09;;;;;;;60.10;30.50;;;5.10;99.90;;;;;;5054608;28;20139;-59
2022/01/26 12:56:35;;;;;;;62.70;33.97;;;5.10;99.90;;;;;;5073787;28;20024;-59
2022/01/26 12:59:05;;;;;;;60.17;33.22;;;5.10;99.90;;;;;;5073727;28;20370;-59
2022/01/26 13:01:31;;;;;;;65.00;32.35;;;5.10;99.90;;;;;;5074370;28;20074;-59
2022/01/26 13:03:59;;;;;;;62.53;34.22;;;5.10;99.90;;;;;;5058366;28;20435;-59
2022/01/26 13:06:28;;;;;;;61.35;32.00;;;5.10;99.90;;;;;;5055344;28;20388;-59
2022/01/26 13:08:55;;;;;;;62.53;32.15;;;5.10;99.90;;;;;;5071440;28;20115;-59
2022/01/26 13:11:23;;;;;;;62.63;32.28;;;5.10;99.90;;;;;;5069739;28;20032;-59
2022/01/26 13:13:48;;;;;;;63.05;31.40;;;5.10;99.90;;;;;;5073316;28;20024;-59
2022/01/26 13:16:21;;;;;;;60.42;31.55;;;5.20;99.90;;;;;;5054882;28;20516;-59
2022/01/26 13:24:09;;;;;;;54.58;29.20;;;5.30;99.90;;;;;;5082882;28;20028;-59
2022/01/26 13:30:16;;;;;;;57.38;30.65;;;5.30;99.90;;;;;;5089714;28;20070;-59
2022/01/26 13:37:51;;;;;;;52.10;27.23;;;5.30;99.90;;;;;;5073307;28;20107;-59
2022/01/26 13:43:24;;;;;;;;;;;;;;;;;;;;;
2022/01/26 13:59:22;;;;;;;59.50;32.03;;;5.20;99.90;;;;;;5072618;28;20044;-59
2022/01/26 14:01:49;;;;;;;57.22;30.83;;;5.20;99.90;;;;;;5069902;28;20582;-59
2022/01/26 14:04:16;;;;;;;58.38;32.53;;;5.20;99.90;;;;;;5057600;28;20074;-59
2022/01/26 14:06:43;;;;;;;56.50;29.73;;;5.20;99.90;;;;;;5071220;28;20017;-58
2022/01/26 14:09:08;;;;;;;62.53;32.75;;;5.20;99.90;;;;;;5048155;28;20396;-59
2022/01/26 14:11:34;;;;;;;57.55;29.58;;;5.30;99.90;;;;;;5068820;28;20013;-59
2022/01/26 14:14:01;;;;;;;51.58;28.70;;;5.30;99.90;;;;;;5053552;28;20059;-59
2022/01/26 14:16:32;;;;;;;60.25;29.95;;;5.30;99.90;;;;;;5071199;28;20024;-59
2022/01/26 14:27:07;;;;;;;54.25;28.73;;;5.40;99.90;;;;;;5054394;28;20044;-59
2022/01/26 14:32:56;;;;;;;53.97;29.65;;;5.50;99.90;;;;;;5072124;28;20059;-59
2022/01/26 14:40:43;;;;;;;53.10;28.65;;;5.50;99.90;;;;;;5072114;28;20114;-59
2022/01/26 14:51:55;;;;;;;46.97;27.00;;;5.50;99.90;;;;;;5051172;28;20032;-59
2022/01/26 15:00:51;;;;;;;52.25;27.90;;;5.50;99.90;;;;;;5052387;28;20116;-59
2022/01/26 15:29:54;;;;;;;64.50;32.85;;;5.30;99.90;;;;;;5071800;28;20036;-59
2022/01/26 15:29:59;;;;;;;65.05;33.47;;;5.30;99.90;;;;;;5071609;28;20035;-59
2022/01/26 15:31:01;;;;;;;67.18;34.03;;;5.30;99.90;;;;;;5070693;28;20048;-59
2022/01/26 15:41:51;;;;;;;67.95;36.05;;;5.20;99.90;;;;;;5071481;28;20059;-59
2022/01/26 15:44:37;;;;;;;69.30;37.33;;;5.20;99.90;;;;;;5060497;28;20043;-59
2022/01/26 15:49:53;;;;;;;67.78;36.63;;;5.10;99.90;;;;;;5089877;28;20078;-59
2022/01/26 15:58:09;;;;;;;71.50;37.75;;;5.10;99.90;;;;;;5075524;28;20047;-59
2022/01/26 16:19:57;;;;;;;70.72;35.72;;;5.00;99.90;;;;;;5073800;28;20024;-59
2022/01/26 16:26:23;;;;;;;70.57;37.30;;;5.00;99.90;;;;;;5086346;28;19919;-59
2022/01/26 16:35:08;;;;;;;72.80;37.15;;;4.90;99.90;;;;;;5072712;28;20082;-59
2022/01/26 16:37:41;;;;;;;67.90;35.47;;;4.90;99.90;;;;;;5091914;28;20050;-59
2022/01/26 18:06:16;;;;;;;89.18;42.95;;;4.60;99.90;;;;;;5073082;28;20031;-59
2022/01/26 18:32:09;;;;;;;88.75;44.58;;;4.50;99.90;;;;;;5060550;28;20051;-59
2022/01/26 18:49:53;;;;;;;82.68;41.25;;;4.30;99.90;;;;;;4968262;28;20077;-59
2022/01/26 18:52:18;;;;;;;80.85;40.60;;;4.40;99.90;;;;;;5038405;28;20036;-58
2022/01/26 18:54:44;;;;;;;83.32;40.30;;;4.40;99.90;;;;;;5069401;28;20024;-59
2022/01/26 18:57:20;;;;;;;81.85;40.03;;;4.40;99.90;;;;;;5051400;28;20032;-59
2022/01/26 18:59:46;;;;;;;87.60;41.47;;;4.40;99.90;;;;;;5050411;28;20131;-59
2022/01/26 19:02:12;;;;;;;90.82;41.40;;;4.40;99.90;;;;;;5051081;28;20054;-59
2022/01/26 19:04:46;;;;;;;84.30;39.60;;;4.40;99.90;;;;;;5068924;28;20025;-59
2022/01/26 19:07:12;;;;;;;83.13;40.50;;;4.40;99.90;;;;;;5051246;28;20552;-59
2022/01/26 19:09:42;;;;;;;83.32;38.53;;;4.40;99.90;;;;;;5069370;28;20110;-59
2022/01/26 19:12:14;;;;;;;84.05;38.83;;;4.40;99.90;;;;;;5069494;28;20123;-59
2022/01/26 19:14:45;;;;;;;81.55;38.03;;;4.40;99.90;;;;;;5069492;28;20037;-59
2022/01/26 19:17:26;;;;;;;85.40;41.05;;;4.40;99.90;;;;;;5069170;28;20033;-59
2022/01/26 19:27:35;;;;;;;83.35;38.33;;;4.40;99.90;;;;;;5072859;28;20060;-59
2022/01/26 19:30:39;;;;;;;81.38;38.83;;;4.40;99.90;;;;;;5054872;28;20365;-59
2022/01/26 19:33:00;;;;;;;77.38;35.80;;;4.40;99.90;;;;;;5071343;28;20028;-59
2022/01/26 19:51:21;;;;;;;84.03;37.78;;;4.40;99.90;;;;;;5053025;28;20156;-59
2022/01/26 19:53:47;;;;;;;78.13;38.22;;;4.30;99.90;;;;;;5052533;28;20063;-59
2022/01/26 19:56:13;;;;;;;80.65;38.30;;;4.30;99.90;;;;;;5052655;28;20520;-59
2022/01/26 19:58:39;;;;;;;92.45;40.35;;;4.30;99.90;;;;;;5054919;28;20028;-59
2022/01/26 20:01:25;;;;;;;84.90;39.45;;;4.30;99.90;;;;;;5072275;28;20557;-59
2022/01/26 20:03:51;;;;;;;82.03;41.47;;;4.30;99.90;;;;;;5072021;28;20027;-59
2022/01/26 20:06:17;;;;;;;84.53;40.70;;;4.30;99.90;;;;;;5072360;28;20571;-59
2022/01/26 20:08:55;;;;;;;86.57;38.55;;;4.30;99.90;;;;;;5053786;28;20112;-59
2022/01/26 20:11:30;;;;;;;86.35;40.50;;;4.30;99.90;;;;;;5052170;28;20013;-59
2022/01/26 20:14:01;;;;;;;78.78;37.13;;;4.20;99.90;;;;;;5034409;28;20029;-59
2022/01/26 20:16:27;;;;;;;81.97;38.80;;;4.20;99.90;;;;;;5054622;28;20476;-59